Time;durP1;ratioP1;P1;durP2;ratioP2;P2;SDS_P1;SDS_P2;PMS_P1;PMS_P2;Temp;Humidity;BMP_temperature;BMP_pressure;BME280_temperature;BME280_humidity;BME280_pressure;Samples;Min_cycle;Max_cycle;Signal;HPM_P1;HPM_P2
2021/10/03 00:01:19;;;;;;;0.80;0.70;;;;;;;20.13;100.00;-21227.16;4954937;29;20438;-75
2021/10/03 00:03:50;;;;;;;0.70;0.70;;;;;;;20.10;100.00;-21226.34;4953991;29;20407;-75
2021/10/03 00:06:18;;;;;;;0.70;0.70;;;;;;;20.16;100.00;-21228.00;4954898;28;20448;-76
2021/10/03 00:08:45;;;;;;;0.70;0.70;;;;;;;20.13;100.00;-21227.03;4960469;28;20791;-76
2021/10/03 00:11:13;;;;;;;0.70;0.60;;;;;;;20.14;100.00;-21227.44;4972508;28;20475;-74
2021/10/03 00:13:41;;;;;;;0.80;0.80;;;;;;;20.10;100.00;-21226.22;4956323;28;20531;-75
2021/10/03 00:16:09;;;;;;;0.80;0.70;;;;;;;20.17;100.00;-21228.13;4974329;28;20423;-75
2021/10/03 00:18:36;;;;;;;0.80;0.77;;;;;;;20.21;100.00;-21229.34;4973011;28;20471;-75
2021/10/03 00:21:07;;;;;;;0.70;0.70;;;;;;;20.14;100.00;-21227.44;4973817;28;20422;-75
2021/10/03 00:23:35;;;;;;;0.70;0.70;;;;;;;20.16;100.00;-21228.00;4972543;28;20506;-76
2021/10/03 00:26:02;;;;;;;0.70;0.60;;;;;;;20.21;100.00;-21229.34;4956735;28;20506;-76
2021/10/03 00:28:30;;;;;;;1.40;1.30;;;;;;;20.20;100.00;-21228.94;4973362;28;20463;-75
2021/10/03 00:30:57;;;;;;;0.70;0.70;;;;;;;20.18;100.00;-21228.41;4972472;28;20498;-75
2021/10/03 00:33:26;;;;;;;0.70;0.63;;;;;;;20.13;100.00;-21227.03;4972211;28;20542;-76
2021/10/03 00:35:53;;;;;;;0.70;0.63;;;;;;;20.07;100.00;-21225.53;4973797;28;20439;-77
2021/10/03 00:38:22;;;;;;;0.73;0.73;;;;;;;20.13;100.00;-21227.03;4967990;28;20496;-75
2021/10/03 00:40:50;;;;;;;0.90;0.90;;;;;;;20.16;100.00;-21228.00;4954291;28;20417;-76
2021/10/03 00:43:17;;;;;;;0.70;0.60;;;;;;;20.18;100.00;-21228.41;4953522;28;20828;-75
2021/10/03 00:45:45;;;;;;;0.70;0.60;;;;;;;20.13;100.00;-21227.16;4960950;28;20440;-76
2021/10/03 00:48:13;;;;;;;0.70;0.70;;;;;;;20.14;100.00;-21227.44;4973882;28;20494;-74
2021/10/03 00:50:42;;;;;;;0.70;0.60;;;;;;;20.12;100.00;-21226.91;4974033;28;20431;-76
2021/10/03 00:53:11;;;;;;;0.90;0.80;;;;;;;20.16;100.00;-21228.00;4976837;28;20463;-75
2021/10/03 00:55:41;;;;;;;0.70;0.60;;;;;;;20.16;100.00;-21227.84;4992252;28;20522;-76
2021/10/03 00:58:09;;;;;;;0.70;0.70;;;;;;;20.11;100.00;-21226.63;4992250;28;20467;-77
2021/10/03 01:00:39;;;;;;;0.70;0.60;;;;;;;20.12;100.00;-21226.91;4974396;28;20478;-73
2021/10/03 01:03:08;;;;;;;0.70;0.60;;;;;;;20.10;100.00;-21226.34;4975830;28;20974;-75
2021/10/03 01:05:35;;;;;;;0.70;0.60;;;;;;;20.07;100.00;-21225.53;4972282;28;21032;-76
2021/10/03 01:08:04;;;;;;;0.70;0.60;;;;;;;20.11;100.00;-21226.63;4961201;28;20999;-75
2021/10/03 01:10:32;;;;;;;0.70;0.60;;;;;;;20.07;100.00;-21225.53;4976275;28;20412;-75
2021/10/03 01:13:07;;;;;;;0.70;0.63;;;;;;;20.05;100.00;-21224.84;4992129;28;20490;-74
2021/10/03 01:15:38;;;;;;;0.70;0.60;;;;;;;20.02;100.00;-21224.16;4975415;28;20454;-76
2021/10/03 01:18:06;;;;;;;0.70;0.60;;;;;;;20.04;100.00;-21224.72;4975362;28;20471;-75
2021/10/03 01:20:35;;;;;;;0.70;0.60;;;;;;;19.94;100.00;-21221.97;4976454;28;20467;-75
2021/10/03 01:23:03;;;;;;;0.70;0.70;;;;;;;20.00;100.00;-21223.63;4976456;28;21034;-76
2021/10/03 01:25:32;;;;;;;0.70;0.70;;;;;;;19.94;100.00;-21221.97;4977358;28;20436;-75
2021/10/03 01:28:00;;;;;;;0.70;0.70;;;;;;;19.95;100.00;-21222.38;4958796;28;20795;-75
2021/10/03 01:30:27;;;;;;;0.80;0.73;;;;;;;19.97;100.00;-21222.78;4977422;28;20408;-74
2021/10/03 01:32:55;;;;;;;0.70;0.70;;;;;;;19.92;100.00;-21221.56;4992024;28;20443;-76
2021/10/03 01:35:23;;;;;;;0.80;0.80;;;;;;;19.85;100.00;-21219.53;4977516;28;20435;-75
2021/10/03 01:37:50;;;;;;;0.70;0.70;;;;;;;19.77;100.00;-21217.59;4976035;28;20468;-75
2021/10/03 01:40:20;;;;;;;0.70;0.63;;;;;;;19.86;100.00;-21219.78;4976351;28;20835;-74
2021/10/03 01:42:49;;;;;;;0.70;0.70;;;;;;;19.81;100.00;-21218.41;4975275;28;20526;-76
2021/10/03 01:45:18;;;;;;;0.87;0.87;;;;;;;19.75;100.00;-21217.06;4975985;28;20447;-76
2021/10/03 01:48:17;;;;;;;0.73;0.70;;;;;;;19.72;100.00;-21216.25;4977005;28;20459;-76
2021/10/03 01:50:48;;;;;;;0.80;0.77;;;;;;;19.66;100.00;-21214.59;4917491;29;20438;-76
2021/10/03 01:53:19;;;;;;;0.93;0.93;;;;;;;19.66;100.00;-21214.59;4964962;28;20509;-75
2021/10/03 01:55:48;;;;;;;0.70;0.60;;;;;;;19.64;100.00;-21214.06;4976922;28;20427;-74
2021/10/03 01:58:18;;;;;;;0.83;0.83;;;;;;;19.69;100.00;-21215.41;4976376;28;20416;-75
2021/10/03 02:00:47;;;;;;;0.70;0.60;;;;;;;19.66;100.00;-21214.59;4975183;28;20553;-76
2021/10/03 02:03:16;;;;;;;0.80;0.80;;;;;;;19.60;100.00;-21212.94;4989495;28;20439;-76
2021/10/03 02:05:45;;;;;;;0.73;0.70;;;;;;;19.63;100.00;-21213.78;4975188;28;20455;-75
2021/10/03 02:08:16;;;;;;;0.80;0.77;;;;;;;19.57;100.00;-21212.13;4976264;28;20451;-77
2021/10/03 02:10:46;;;;;;;0.70;0.63;;;;;;;19.50;100.00;-21210.22;4972201;28;20475;-75
2021/10/03 02:13:15;;;;;;;0.70;0.70;;;;;;;19.41;100.00;-21207.75;4956428;28;20427;-73
2021/10/03 02:15:43;;;;;;;0.70;0.70;;;;;;;19.45;100.00;-21208.84;4988576;28;20487;-76
2021/10/03 02:18:12;;;;;;;0.70;0.60;;;;;;;19.42;100.00;-21208.03;4976014;28;20483;-77
2021/10/03 02:20:41;;;;;;;0.70;0.60;;;;;;;19.36;100.00;-21206.53;4975901;28;20522;-77
2021/10/03 02:23:10;;;;;;;0.70;0.60;;;;;;;19.36;100.00;-21206.38;4958494;28;20827;-76
2021/10/03 02:25:45;;;;;;;0.70;0.70;;;;;;;19.29;100.00;-21204.75;4971092;28;20934;-76
2021/10/03 02:28:21;;;;;;;0.70;0.60;;;;;;;19.21;100.00;-21202.56;4977476;28;20950;-77
2021/10/03 02:30:51;;;;;;;0.70;0.63;;;;;;;19.23;100.00;-21203.09;4957892;28;20490;-76
2021/10/03 02:33:20;;;;;;;0.70;0.60;;;;;;;19.23;100.00;-21203.09;4956118;28;20455;-75
2021/10/03 02:35:48;;;;;;;0.80;0.70;;;;;;;19.17;100.00;-21201.47;4956371;29;20446;-77
2021/10/03 02:38:18;;;;;;;0.70;0.60;;;;;;;19.16;100.00;-21201.19;4961601;28;20466;-76
2021/10/03 02:40:48;;;;;;;0.80;0.80;;;;;;;19.14;100.00;-21200.66;4974450;28;20463;-75
2021/10/03 02:43:16;;;;;;;0.70;0.60;;;;;;;19.15;100.00;-21200.91;4975579;28;20432;-76
2021/10/03 02:45:49;;;;;;;0.70;0.60;;;;;;;19.16;100.00;-21201.19;4989830;28;20777;-76
2021/10/03 02:48:18;;;;;;;0.70;0.67;;;;;;;19.19;100.00;-21201.88;4974699;28;20855;-77
2021/10/03 02:50:49;;;;;;;0.70;0.70;;;;;;;19.14;100.00;-21200.66;4975327;28;20940;-77
2021/10/03 02:53:17;;;;;;;0.70;0.60;;;;;;;19.19;100.00;-21201.88;4974781;28;20467;-77
2021/10/03 02:55:44;;;;;;;0.70;0.70;;;;;;;19.13;100.00;-21200.38;4990404;28;20471;-76
2021/10/03 02:58:11;;;;;;;1.63;1.07;;;;;;;19.10;100.00;-21199.56;4974241;28;20452;-76
2021/10/03 03:00:40;;;;;;;0.80;0.77;;;;;;;19.18;100.00;-21201.72;4973678;28;20471;-76
2021/10/03 03:03:08;;;;;;;0.77;0.77;;;;;;;19.20;100.00;-21202.28;4975150;28;20893;-76
2021/10/03 03:05:36;;;;;;;0.70;0.60;;;;;;;19.17;100.00;-21201.31;4974854;28;20976;-76
2021/10/03 03:08:03;;;;;;;0.70;0.60;;;;;;;19.22;100.00;-21202.84;4975176;28;20979;-77
2021/10/03 03:10:34;;;;;;;0.70;0.60;;;;;;;19.26;100.00;-21203.78;4975100;28;20515;-76
2021/10/03 03:13:01;;;;;;;0.70;0.60;;;;;;;19.24;100.00;-21203.38;4974048;28;20510;-76
2021/10/03 03:15:29;;;;;;;0.70;0.60;;;;;;;19.22;100.00;-21202.69;4957080;28;20494;-77
2021/10/03 03:17:56;;;;;;;0.90;0.70;;;;;;;19.29;100.00;-21204.75;4975107;28;20422;-75
2021/10/03 03:20:25;;;;;;;0.70;0.70;;;;;;;19.30;100.00;-21204.88;4974714;28;20560;-76
2021/10/03 03:22:52;;;;;;;0.77;0.70;;;;;;;19.29;100.00;-21204.75;4975030;28;20559;-76
2021/10/03 03:25:19;;;;;;;0.70;0.60;;;;;;;19.30;100.00;-21205.03;4990405;28;20424;-75
2021/10/03 03:27:46;;;;;;;0.70;0.60;;;;;;;19.35;100.00;-21206.25;4973059;28;20455;-74
2021/10/03 03:30:13;;;;;;;0.90;0.90;;;;;;;19.47;100.00;-21209.41;4974962;28;20438;-75
2021/10/03 03:32:40;;;;;;;1.17;1.07;;;;;;;19.54;100.00;-21211.44;4973638;28;20411;-75
2021/10/03 03:35:09;;;;;;;0.70;0.70;;;;;;;19.55;100.00;-21211.72;4974786;28;20459;-76
2021/10/03 03:37:38;;;;;;;0.70;0.60;;;;;;;19.69;100.00;-21215.41;4974239;28;20467;-72
2021/10/03 03:40:08;;;;;;;0.80;0.70;;;;;;;19.67;100.00;-21214.88;4974267;28;20471;-75
2021/10/03 03:42:35;;;;;;;0.70;0.70;;;;;;;19.81;100.00;-21218.41;4974924;28;20456;-76
2021/10/03 03:45:03;;;;;;;1.77;1.03;;;;;;;19.90;100.00;-21220.88;4974015;28;20530;-75
2021/10/03 03:47:30;;;;;;;1.17;1.07;;;;;;;19.88;100.00;-21220.34;4974041;28;20420;-76
2021/10/03 03:49:59;;;;;;;1.00;0.80;;;;;;;19.95;100.00;-21222.25;4974498;28;20428;-75
2021/10/03 03:52:26;;;;;;;0.70;0.70;;;;;;;19.97;100.00;-21222.78;4974306;28;20526;-75
2021/10/03 03:54:55;;;;;;;0.70;0.70;;;;;;;20.01;100.00;-21223.88;4973112;28;20439;-77
2021/10/03 03:57:24;;;;;;;4.83;2.70;;;;;;;20.11;100.00;-21226.50;4973788;28;20482;-76
2021/10/03 03:59:51;;;;;;;0.80;0.70;;;;;;;20.24;100.00;-21230.03;4988577;28;20459;-75
2021/10/03 04:02:18;;;;;;;0.70;0.60;;;;;;;20.31;100.00;-21231.81;4973978;28;20878;-76
2021/10/03 04:04:46;;;;;;;0.80;0.70;;;;;;;20.35;100.00;-21233.03;4970863;28;20468;-75
2021/10/03 04:07:14;;;;;;;0.77;0.70;;;;;;;20.38;100.00;-21233.84;4974831;28;20875;-75
2021/10/03 04:09:42;;;;;;;0.70;0.70;;;;;;;20.33;100.00;-21232.50;4974251;28;20507;-74
2021/10/03 04:12:11;;;;;;;1.10;0.80;;;;;;;20.45;100.00;-21235.78;4974428;28;20435;-76
2021/10/03 04:14:39;;;;;;;0.80;0.70;;;;;;;20.45;100.00;-21235.78;4974697;28;20476;-76
2021/10/03 04:17:06;;;;;;;0.80;0.70;;;;;;;20.44;100.00;-21235.50;4972940;28;20443;-74
2021/10/03 04:19:34;;;;;;;0.80;0.80;;;;;;;20.54;100.00;-21237.97;4974325;28;20443;-75
2021/10/03 04:22:01;;;;;;;0.80;0.70;;;;;;;20.56;100.00;-21238.66;4973770;28;20416;-76
2021/10/03 04:24:28;;;;;;;0.70;0.70;;;;;;;20.61;100.00;-21240.00;4972982;28;20558;-77
2021/10/03 04:26:55;;;;;;;0.73;0.73;;;;;;;20.65;100.00;-21241.09;4992513;28;20435;-77
2021/10/03 04:29:24;;;;;;;1.10;0.70;;;;;;;20.67;100.00;-21241.66;4976053;28;20920;-75
2021/10/03 04:31:51;;;;;;;0.70;0.60;;;;;;;20.90;100.00;-21247.66;4971859;28;20499;-75
2021/10/03 04:34:18;;;;;;;1.57;1.47;;;;;;;20.93;100.00;-21248.47;4958632;28;20413;-76
2021/10/03 04:36:45;;;;;;;0.70;0.70;;;;;;;21.01;100.00;-21250.66;4957860;28;20437;-77
2021/10/03 04:39:13;;;;;;;0.70;0.60;;;;;;;20.99;100.00;-21250.09;4966365;28;20434;-77
2021/10/03 04:41:40;;;;;;;0.80;0.70;;;;;;;20.94;100.00;-21248.75;4977497;28;20961;-77
2021/10/03 04:44:07;;;;;;;0.70;0.60;;;;;;;21.02;100.00;-21250.78;4977453;28;20432;-76
2021/10/03 04:46:35;;;;;;;0.97;0.90;;;;;;;20.95;100.00;-21249.00;4975884;28;20842;-75
2021/10/03 04:49:02;;;;;;;0.70;0.60;;;;;;;21.00;100.00;-21250.38;4977668;28;20402;-74
2021/10/03 04:51:29;;;;;;;0.70;0.60;;;;;;;21.00;100.00;-21250.38;4976486;28;20427;-75
2021/10/03 04:53:56;;;;;;;0.70;0.60;;;;;;;20.98;100.00;-21249.84;4978515;28;20490;-74
2021/10/03 04:56:23;;;;;;;0.80;0.80;;;;;;;21.04;100.00;-21251.34;4975496;28;20816;-74
2021/10/03 04:58:50;;;;;;;0.80;0.70;;;;;;;21.06;100.00;-21252.03;4976534;28;20453;-75
2021/10/03 05:01:17;;;;;;;0.70;0.63;;;;;;;21.12;100.00;-21253.50;4976528;28;20463;-76
2021/10/03 05:03:46;;;;;;;0.80;0.70;;;;;;;21.11;100.00;-21253.38;4977466;28;20412;-74
2021/10/03 05:06:14;;;;;;;0.70;0.70;;;;;;;21.04;100.00;-21251.47;4992667;28;20447;-74
2021/10/03 05:08:41;;;;;;;0.70;0.70;;;;;;;21.14;100.00;-21254.19;4994465;28;20534;-75
2021/10/03 05:11:09;;;;;;;1.00;0.90;;;;;;;21.29;100.00;-21258.16;4976858;28;20931;-75
2021/10/03 05:13:35;;;;;;;0.70;0.70;;;;;;;21.14;100.00;-21254.06;4977029;28;20413;-74
2021/10/03 05:16:03;;;;;;;0.73;0.70;;;;;;;21.13;100.00;-21253.78;4976708;28;20502;-76
2021/10/03 05:18:30;;;;;;;0.73;0.67;;;;;;;21.12;100.00;-21253.50;4975351;28;20406;-76
2021/10/03 05:20:58;;;;;;;0.77;0.70;;;;;;;21.09;100.00;-21252.69;4991956;28;20462;-74
2021/10/03 05:23:25;;;;;;;0.70;0.60;;;;;;;21.11;100.00;-21253.25;4975671;28;20538;-77
2021/10/03 05:25:55;;;;;;;0.70;0.70;;;;;;;21.16;100.00;-21254.75;4975288;28;20474;-73
2021/10/03 05:28:25;;;;;;;0.70;0.60;;;;;;;21.22;100.00;-21256.25;4976926;28;20403;-75
2021/10/03 05:30:52;;;;;;;0.70;0.70;;;;;;;21.24;100.00;-21256.78;4963873;28;20468;-77
2021/10/03 05:33:19;;;;;;;0.70;0.60;;;;;;;21.16;100.00;-21254.59;4957407;28;20429;-75
2021/10/03 05:35:47;;;;;;;0.70;0.60;;;;;;;21.17;100.00;-21255.03;4957035;28;20407;-74
2021/10/03 05:38:17;;;;;;;0.90;0.90;;;;;;;21.14;100.00;-21254.06;4971191;28;20431;-76
2021/10/03 05:40:44;;;;;;;0.80;0.80;;;;;;;21.15;100.00;-21254.47;4968777;28;20446;-74
2021/10/03 05:43:16;;;;;;;1.33;1.23;;;;;;;21.11;100.00;-21253.38;4975177;28;20463;-74
2021/10/03 05:45:43;;;;;;;0.73;0.70;;;;;;;21.12;100.00;-21253.66;4991527;28;20482;-75
2021/10/03 05:48:10;;;;;;;1.00;0.90;;;;;;;21.09;100.00;-21252.69;4976303;28;20451;-74
2021/10/03 05:50:38;;;;;;;0.70;0.60;;;;;;;21.06;100.00;-21252.03;4975069;28;20975;-74
2021/10/03 05:53:05;;;;;;;0.70;0.60;;;;;;;21.06;100.00;-21252.03;4975152;28;20852;-74
2021/10/03 05:55:34;;;;;;;0.80;0.80;;;;;;;21.08;100.00;-21252.44;4989391;28;20451;-75
2021/10/03 05:58:01;;;;;;;0.80;0.80;;;;;;;21.04;100.00;-21251.47;4990860;28;20406;-75
2021/10/03 06:00:29;;;;;;;0.70;0.60;;;;;;;21.08;100.00;-21252.56;4974859;28;20468;-74
2021/10/03 06:02:56;;;;;;;0.70;0.60;;;;;;;21.08;100.00;-21252.56;4975017;28;20482;-76
2021/10/03 06:05:23;;;;;;;0.80;0.80;;;;;;;21.01;100.00;-21250.50;4974904;28;20459;-75
2021/10/03 06:07:51;;;;;;;0.70;0.70;;;;;;;21.07;100.00;-21252.16;4973530;28;20464;-76
2021/10/03 06:10:18;;;;;;;0.70;0.60;;;;;;;21.02;100.00;-21250.78;4976234;28;20416;-75
2021/10/03 06:12:47;;;;;;;0.80;0.73;;;;;;;21.03;100.00;-21251.19;4974866;28;20426;-76
2021/10/03 06:15:15;;;;;;;0.70;0.60;;;;;;;20.91;100.00;-21247.91;4975909;28;20811;-77
2021/10/03 06:17:43;;;;;;;0.93;0.93;;;;;;;20.95;100.00;-21249.16;4990844;28;20451;-74
2021/10/03 06:20:12;;;;;;;0.80;0.80;;;;;;;20.96;100.00;-21249.28;4975444;28;20858;-75
2021/10/03 06:22:44;;;;;;;0.70;0.70;;;;;;;21.01;100.00;-21250.50;4974361;28;20835;-74
2021/10/03 06:25:11;;;;;;;0.70;0.60;;;;;;;21.00;100.00;-21250.38;4989639;28;20424;-75
2021/10/03 06:27:39;;;;;;;0.80;0.80;;;;;;;20.96;100.00;-21249.28;4975636;28;20518;-75
2021/10/03 06:30:09;;;;;;;0.80;0.80;;;;;;;20.99;100.00;-21250.09;4973925;28;20995;-75
2021/10/03 06:32:36;;;;;;;1.77;0.97;;;;;;;21.01;100.00;-21250.66;4975576;28;20423;-74
2021/10/03 06:35:04;;;;;;;1.10;1.00;;;;;;;21.01;100.00;-21250.50;4974141;28;20471;-75
2021/10/03 06:37:31;;;;;;;0.87;0.87;;;;;;;21.07;100.00;-21252.28;4974038;28;20562;-74
2021/10/03 06:39:58;;;;;;;0.80;0.80;;;;;;;21.03;100.00;-21251.19;4975227;28;20434;-72
2021/10/03 06:42:26;;;;;;;0.70;0.70;;;;;;;21.15;100.00;-21254.34;4974943;28;20471;-76
2021/10/03 06:44:53;;;;;;;1.10;1.00;;;;;;;21.13;100.00;-21253.94;4975711;28;20440;-75
2021/10/03 06:47:22;;;;;;;0.80;0.70;;;;;;;21.10;100.00;-21253.09;4974052;28;20452;-75
2021/10/03 06:49:49;;;;;;;0.80;0.80;;;;;;;21.03;100.00;-21251.19;4971897;28;20996;-75
2021/10/03 06:52:17;;;;;;;0.80;0.73;;;;;;;21.15;100.00;-21254.47;4953655;28;20469;-74
2021/10/03 06:54:44;;;;;;;0.70;0.70;;;;;;;21.08;100.00;-21252.56;4974710;28;20428;-76
2021/10/03 06:57:12;;;;;;;1.27;0.87;;;;;;;21.26;100.00;-21257.19;4973001;28;20447;-75
2021/10/03 06:59:39;;;;;;;0.93;0.93;;;;;;;21.26;100.00;-21257.19;4974249;28;20421;-76
2021/10/03 07:02:13;;;;;;;1.73;1.00;;;;;;;21.34;100.00;-21259.38;4974726;28;20491;-74
2021/10/03 07:04:41;;;;;;;1.10;1.00;;;;;;;21.36;100.00;-21260.06;4972014;28;20432;-77
2021/10/03 07:07:08;;;;;;;0.80;0.70;;;;;;;21.41;100.00;-21261.28;4972887;28;20463;-76
2021/10/03 07:09:35;;;;;;;0.80;0.70;;;;;;;21.41;100.00;-21261.44;4975289;28;20850;-74
2021/10/03 07:12:04;;;;;;;0.90;0.90;;;;;;;21.32;100.00;-21258.97;4974646;28;20428;-75
2021/10/03 07:14:31;;;;;;;0.80;0.80;;;;;;;21.22;100.00;-21256.38;4973954;28;20429;-75
2021/10/03 07:16:58;;;;;;;0.70;0.60;;;;;;;21.32;100.00;-21258.84;4975250;28;20523;-71
2021/10/03 07:19:25;;;;;;;0.70;0.60;;;;;;;21.33;100.00;-21259.09;4973627;28;20534;-75
2021/10/03 07:21:54;;;;;;;0.70;0.70;;;;;;;21.25;100.00;-21257.06;4974528;28;20500;-73
2021/10/03 07:24:21;;;;;;;0.80;0.80;;;;;;;21.02;100.00;-21250.91;4973289;28;20469;-76
2021/10/03 07:26:49;;;;;;;1.20;1.10;;;;;;;20.79;100.00;-21244.66;4974823;28;20509;-75
2021/10/03 07:29:16;;;;;;;1.20;1.10;;;;;;;20.61;100.00;-21240.00;4973688;28;20899;-75
2021/10/03 07:31:43;;;;;;;0.70;0.60;;;;;;;20.38;100.00;-21233.84;4974783;28;20413;-73
2021/10/03 07:34:10;;;;;;;0.70;0.70;;;;;;;20.19;100.00;-21228.66;4972889;28;20977;-73
2021/10/03 07:36:37;;;;;;;0.80;0.70;;;;;;;20.18;100.00;-21228.53;4973927;28;20428;-74
2021/10/03 07:39:06;;;;;;;0.80;0.80;;;;;;;20.22;100.00;-21229.63;4973043;28;20890;-74
2021/10/03 07:41:33;;;;;;;0.73;0.70;;;;;;;20.25;100.00;-21230.31;4973804;28;20474;-76
2021/10/03 07:44:00;;;;;;;0.80;0.70;;;;;;;20.28;100.00;-21231.25;4966503;28;21004;-74
2021/10/03 07:46:28;;;;;;;0.70;0.60;;;;;;;20.39;100.00;-21234.00;4955404;28;20426;-74
2021/10/03 07:48:56;;;;;;;0.70;0.70;;;;;;;20.38;100.00;-21233.72;4955364;28;20520;-74
2021/10/03 07:51:22;;;;;;;0.70;0.70;;;;;;;20.32;100.00;-21232.22;4973248;28;20802;-71
2021/10/03 07:53:49;;;;;;;0.90;0.90;;;;;;;20.38;100.00;-21233.84;4974463;28;20979;-75
2021/10/03 07:56:18;;;;;;;0.90;0.90;;;;;;;20.45;100.00;-21235.78;4974028;28;20412;-76
2021/10/03 07:58:45;;;;;;;0.70;0.70;;;;;;;20.62;100.00;-21240.28;4974581;28;20408;-75
2021/10/03 08:01:12;;;;;;;0.70;0.70;;;;;;;20.67;100.00;-21241.66;4974809;28;20520;-74
2021/10/03 08:03:39;;;;;;;0.70;0.60;;;;;;;20.80;100.00;-21244.91;4978863;28;20416;-74
2021/10/03 08:06:07;;;;;;;0.77;0.70;;;;;;;20.72;100.00;-21243.00;4976379;28;20537;-74
2021/10/03 08:08:34;;;;;;;0.80;0.70;;;;;;;20.70;100.00;-21242.47;4976794;28;20794;-74
2021/10/03 08:11:01;;;;;;;0.70;0.60;;;;;;;20.66;100.00;-21241.38;4978323;28;20419;-74
2021/10/03 08:13:30;;;;;;;0.70;0.70;;;;;;;20.67;100.00;-21241.50;4976061;28;20418;-75
2021/10/03 08:15:57;;;;;;;0.70;0.70;;;;;;;20.65;100.00;-21241.09;4976740;28;20449;-76
2021/10/03 08:18:24;;;;;;;0.70;0.60;;;;;;;20.59;100.00;-21239.47;4976936;28;20406;-73
2021/10/03 08:20:51;;;;;;;0.70;0.70;;;;;;;20.71;100.00;-21242.59;4992641;28;20505;-76
2021/10/03 08:23:19;;;;;;;0.70;0.70;;;;;;;20.66;100.00;-21241.38;4978070;28;20512;-74
2021/10/03 08:25:47;;;;;;;0.70;0.60;;;;;;;20.63;100.00;-21240.56;4977965;28;20503;-72
2021/10/03 08:28:14;;;;;;;0.80;0.80;;;;;;;20.58;100.00;-21239.19;4978409;28;20443;-74
2021/10/03 08:30:42;;;;;;;0.80;0.70;;;;;;;20.56;100.00;-21238.66;4992300;28;20474;-75
2021/10/03 08:33:10;;;;;;;0.80;0.70;;;;;;;20.48;100.00;-21236.47;4976646;28;20518;-76
2021/10/03 08:35:37;;;;;;;1.13;1.03;;;;;;;20.44;100.00;-21235.38;4979157;28;20432;-74
2021/10/03 08:38:04;;;;;;;0.70;0.70;;;;;;;20.43;100.00;-21235.09;4961598;28;20514;-74
2021/10/03 08:40:31;;;;;;;0.70;0.70;;;;;;;20.43;100.00;-21235.22;4978361;28;20459;-76
2021/10/03 08:42:58;;;;;;;1.00;0.90;;;;;;;20.49;100.00;-21236.72;4980238;28;20455;-73
2021/10/03 08:45:32;;;;;;;0.70;0.70;;;;;;;20.50;100.00;-21237.13;4970017;28;20859;-75
2021/10/03 08:48:01;;;;;;;0.80;0.70;;;;;;;20.52;100.00;-21237.41;4987406;28;20828;-73
2021/10/03 08:50:28;;;;;;;0.80;0.80;;;;;;;20.54;100.00;-21237.97;4976609;28;20443;-74
2021/10/03 08:53:00;;;;;;;0.80;0.80;;;;;;;20.54;100.00;-21238.09;4982004;28;20475;-76
2021/10/03 08:55:27;;;;;;;0.70;0.70;;;;;;;20.50;100.00;-21237.00;4966384;28;20439;-77
2021/10/03 08:57:56;;;;;;;0.80;0.73;;;;;;;20.53;100.00;-21237.81;4976767;28;20917;-73
2021/10/03 09:00:24;;;;;;;0.80;0.80;;;;;;;20.52;100.00;-21237.41;4984776;28;20439;-75
2021/10/03 09:02:54;;;;;;;0.80;0.80;;;;;;;20.61;100.00;-21240.00;4985365;28;20455;-75
2021/10/03 09:05:25;;;;;;;0.70;0.70;;;;;;;20.58;100.00;-21239.19;4970492;28;20439;-75
2021/10/03 09:08:04;;;;;;;0.70;0.70;;;;;;;20.47;100.00;-21236.31;4961628;28;20464;-76
2021/10/03 09:10:54;;;;;;;0.70;0.70;;;;;;;20.54;100.00;-21238.09;4962677;28;20393;-74
2021/10/03 09:13:24;;;;;;;0.70;0.60;;;;;;;20.60;100.00;-21239.59;4975789;28;20406;-75
2021/10/03 09:16:06;;;;;;;0.70;0.60;;;;;;;20.58;100.00;-21239.19;4977778;28;20436;-74
2021/10/03 09:18:38;;;;;;;0.77;0.70;;;;;;;20.60;100.00;-21239.72;4976114;28;20415;-75
2021/10/03 09:21:09;;;;;;;0.80;0.80;;;;;;;20.60;100.00;-21239.72;4977553;28;20420;-72
2021/10/03 09:23:37;;;;;;;0.70;0.70;;;;;;;20.64;100.00;-21240.69;4975915;28;20558;-75
2021/10/03 09:26:11;;;;;;;1.10;1.00;;;;;;;20.64;100.00;-21240.81;4977285;28;20447;-75
2021/10/03 09:28:38;;;;;;;0.70;0.67;;;;;;;20.62;100.00;-21240.28;4977272;28;20439;-76
2021/10/03 09:31:07;;;;;;;0.70;0.60;;;;;;;20.64;100.00;-21240.81;4980044;28;20439;-76
2021/10/03 09:33:41;;;;;;;0.80;0.77;;;;;;;20.63;100.00;-21240.56;4991787;28;20425;-74
2021/10/03 09:36:13;;;;;;;0.90;0.90;;;;;;;20.62;100.00;-21240.28;4991818;28;20906;-74
2021/10/03 09:38:53;;;;;;;0.80;0.80;;;;;;;20.66;100.00;-21241.25;4976216;28;20792;-74
2021/10/03 09:41:36;;;;;;;0.77;0.70;;;;;;;20.62;100.00;-21240.16;4989365;28;20460;-77
2021/10/03 09:44:17;;;;;;;0.70;0.60;;;;;;;20.58;100.00;-21239.19;4992386;28;20427;-76
2021/10/03 09:46:52;;;;;;;0.80;0.70;;;;;;;20.72;100.00;-21243.00;4998344;28;20425;-76
2021/10/03 09:49:32;;;;;;;0.73;0.70;;;;;;;20.79;100.00;-21244.78;4998039;28;20529;-70
2021/10/03 09:52:06;;;;;;;1.33;1.23;;;;;;;20.79;100.00;-21244.66;4966684;28;20411;-76
2021/10/03 09:54:44;;;;;;;0.70;0.70;;;;;;;20.78;100.00;-21244.38;4971786;28;20593;-76
2021/10/03 09:57:17;;;;;;;0.70;0.60;;;;;;;20.72;100.00;-21243.00;5000310;28;20422;-74
2021/10/03 09:59:45;;;;;;;1.17;1.07;;;;;;;20.86;100.00;-21246.56;4983884;28;20420;-76
2021/10/03 10:02:13;;;;;;;0.70;0.60;;;;;;;20.84;100.00;-21246.16;4975622;28;20531;-76
2021/10/03 10:04:42;;;;;;;0.80;0.80;;;;;;;20.93;100.00;-21248.47;4977967;28;20896;-74
2021/10/03 10:07:11;;;;;;;1.27;0.80;;;;;;;20.96;100.00;-21249.28;4978117;28;20775;-77
2021/10/03 10:09:39;;;;;;;0.80;0.80;;;;;;;20.97;100.00;-21249.56;4977496;28;20418;-77
2021/10/03 10:12:11;;;;;;;0.70;0.67;;;;;;;21.08;100.00;-21252.56;4974417;28;20418;-76
2021/10/03 10:14:40;;;;;;;1.57;1.47;;;;;;;21.10;100.00;-21253.09;4958330;28;20826;-75
2021/10/03 10:17:26;;;;;;;1.13;1.03;;;;;;;21.19;100.00;-21255.56;4975471;28;20954;-76
2021/10/03 10:19:56;;;;;;;0.80;0.80;;;;;;;21.23;100.00;-21256.66;4974849;28;20448;-75
2021/10/03 10:22:30;;;;;;;0.70;0.70;;;;;;;21.16;100.00;-21254.59;4974060;28;21027;-75
2021/10/03 10:25:00;;;;;;;0.80;0.80;;;;;;;21.21;100.00;-21256.09;4974286;28;20407;-77
2021/10/03 10:28:00;;;;;;;0.70;0.70;;;;;;;21.30;100.00;-21258.28;4976204;28;20771;-76
2021/10/03 10:30:28;;;;;;;0.80;0.70;;;;;;;21.33;100.00;-21259.25;4923852;28;20422;-77
2021/10/03 10:33:14;;;;;;;1.10;1.00;;;;;;;21.36;100.00;-21259.94;4973896;28;20441;-77
2021/10/03 10:35:44;;;;;;;0.90;0.90;;;;;;;21.41;100.00;-21261.28;4975381;28;20410;-76
2021/10/03 10:38:14;;;;;;;0.70;0.63;;;;;;;21.45;100.00;-21262.38;4986873;28;20526;-76
2021/10/03 10:40:41;;;;;;;0.70;0.60;;;;;;;21.41;100.00;-21261.28;4956109;28;20462;-77
2021/10/03 10:43:44;;;;;;;0.70;0.70;;;;;;;21.41;100.00;-21261.28;4955122;29;20431;-75
2021/10/03 10:46:50;;;;;;;0.80;0.80;;;;;;;21.38;100.00;-21260.47;4966853;28;20452;-74
2021/10/03 10:49:36;;;;;;;1.23;1.13;;;;;;;21.42;100.00;-21261.56;4954712;28;20771;-77
2021/10/03 10:52:35;;;;;;;0.93;0.93;;;;;;;21.43;100.00;-21261.97;4969319;28;20467;-75
2021/10/03 10:55:24;;;;;;;0.70;0.60;;;;;;;21.43;100.00;-21261.84;4975181;28;20487;-75
2021/10/03 10:58:15;;;;;;;0.70;0.60;;;;;;;21.50;100.00;-21263.63;4973947;28;20808;-75
2021/10/03 11:00:58;;;;;;;0.70;0.70;;;;;;;21.52;100.00;-21264.28;4989945;28;20418;-76
2021/10/03 11:04:03;;;;;;;0.90;0.90;;;;;;;21.58;100.00;-21265.94;4975248;28;20438;-77
2021/10/03 11:07:03;;;;;;;0.70;0.60;;;;;;;21.60;100.00;-21266.47;4969663;28;20452;-74
2021/10/03 11:09:46;;;;;;;0.80;0.80;;;;;;;21.62;100.00;-21267.03;4973417;28;20799;-75
2021/10/03 11:12:29;;;;;;;1.23;1.13;;;;;;;21.60;100.00;-21266.47;4957759;28;20919;-77
2021/10/03 11:15:20;;;;;;;0.70;0.70;;;;;;;21.64;100.00;-21267.56;4973614;28;20935;-76
2021/10/03 11:17:48;;;;;;;0.80;0.80;;;;;;;21.68;100.00;-21268.66;4974465;28;20423;-75
2021/10/03 11:20:15;;;;;;;0.70;0.70;;;;;;;21.77;100.00;-21270.84;4974663;28;20407;-76
2021/10/03 11:22:44;;;;;;;0.80;0.70;;;;;;;21.72;100.00;-21269.59;4973205;28;20458;-75
2021/10/03 11:25:17;;;;;;;0.70;0.60;;;;;;;21.71;100.00;-21269.47;4974323;28;20506;-77
2021/10/03 11:27:52;;;;;;;1.10;1.00;;;;;;;21.82;100.00;-21272.34;4973409;28;20424;-75
2021/10/03 11:30:19;;;;;;;0.80;0.70;;;;;;;21.94;100.00;-21275.59;4974872;28;20449;-77